Terminal Aerodrome Forecast
Issued by NWS Portland, ME

Home | Current Version | Previous Version | Text Only | Print | Product List | Glossary On
Versions: 1 2 3 4 5 6 7 8 9 10 11 12 13 14 15 16 17 18 19 20 21 22 23 24 25 26 27 28 29
000
FTUS41 KGYX 230644 AAA
TAFCON
TAF AMD
KCON 230644Z 2307/2406 00000KT 3/4SM BR FEW080
      TEMPO 2307/2309 2SM BR SCT003
     FM230900 12005KT P6SM SCT090 BKN200
     FM231600 12005KT P6SM BKN025
     FM232000 15007KT 4SM -RA OVC025
     FM232300 16007KT 1SM -RA OVC015
     FM240200 20008KT P6SM OVC007=

USA.gov is the U.S. government's official web portal to all federal, state and local government web resources and services.